createdAt,value
2023-03-17T00:00:30.098Z,9.358397
2023-03-17T00:01:29.857Z,9.358542
2023-03-17T00:02:29.889Z,9.358597
2023-03-17T00:03:29.939Z,9.358536
2023-03-17T00:04:29.823Z,9.358522
2023-03-17T00:05:29.815Z,9.358541
2023-03-17T00:06:29.814Z,9.358654
2023-03-17T00:07:29.809Z,9.358560
2023-03-17T00:08:29.780Z,9.358565
2023-03-17T00:09:29.783Z,9.358585
2023-03-17T00:10:30.054Z,9.358558
2023-03-17T00:11:29.745Z,9.358549
2023-03-17T00:12:29.750Z,9.358478
2023-03-17T00:13:29.743Z,9.358500
2023-03-17T00:14:29.750Z,9.358465
2023-03-17T00:15:29.709Z,9.358456
2023-03-17T00:16:29.696Z,9.358577
2023-03-17T00:17:29.704Z,9.358638
2023-03-17T00:18:29.687Z,9.358734
2023-03-17T00:19:29.686Z,9.358568
2023-03-17T00:20:29.840Z,9.358505
2023-03-17T00:21:29.664Z,9.358498
2023-03-17T00:22:29.630Z,9.358568
2023-03-17T00:23:29.641Z,9.358570
2023-03-17T00:24:29.615Z,9.358542
2023-03-17T00:25:29.619Z,9.358503
2023-03-17T00:26:29.597Z,9.358516
2023-03-17T00:27:29.592Z,9.358426
2023-03-17T00:28:29.581Z,9.358546
2023-03-17T00:29:29.559Z,9.358542
2023-03-17T00:30:29.916Z,9.358515
2023-03-17T00:31:29.693Z,9.358459
2023-03-17T00:32:29.539Z,9.358560
2023-03-17T00:33:29.537Z,9.358549
2023-03-17T00:34:29.519Z,9.358466
2023-03-17T00:35:29.548Z,9.358401
2023-03-17T00:36:29.512Z,9.358401
2023-03-17T00:37:29.477Z,9.358498
2023-03-17T00:38:29.465Z,9.358490
2023-03-17T00:39:29.453Z,9.358473
2023-03-17T00:40:29.621Z,9.358494
2023-03-17T00:41:29.560Z,9.358562
2023-03-17T00:42:29.419Z,9.358553
2023-03-17T00:43:30.714Z,9.358486
2023-03-17T00:44:30.398Z,9.358555
2023-03-17T00:45:29.398Z,9.358636
2023-03-17T00:46:29.375Z,9.358611
2023-03-17T00:47:29.373Z,9.358531
2023-03-17T00:48:29.354Z,9.358482
2023-03-17T00:49:29.351Z,9.358356
2023-03-17T00:50:29.685Z,9.358463
2023-03-17T00:51:29.323Z,9.358492
2023-03-17T00:52:29.300Z,9.358541
2023-03-17T00:53:29.308Z,9.358563
2023-03-17T00:54:29.338Z,9.358603
2023-03-17T00:55:29.286Z,9.358658
2023-03-17T00:56:29.263Z,9.358682
2023-03-17T00:57:29.277Z,9.358608
2023-03-17T00:58:29.250Z,9.358591
2023-03-17T00:59:29.226Z,9.358579
2023-03-17T01:00:29.665Z,9.358409
2023-03-17T01:01:29.210Z,9.358515
2023-03-17T01:02:29.235Z,9.358529
2023-03-17T01:03:29.222Z,9.358467
2023-03-17T01:04:29.203Z,9.358446
2023-03-17T01:05:29.171Z,9.358461
2023-03-17T01:06:29.150Z,9.358513
2023-03-17T01:07:30.162Z,9.358522
2023-03-17T01:08:29.140Z,9.358516
2023-03-17T01:09:29.183Z,9.358554
2023-03-17T01:10:29.492Z,9.358643
2023-03-17T01:11:29.069Z,9.358531
2023-03-17T01:12:29.098Z,9.358525
2023-03-17T01:13:29.104Z,9.358586
2023-03-17T01:14:29.248Z,9.358605
2023-03-17T01:15:29.055Z,9.358541
2023-03-17T01:16:29.144Z,9.358572
2023-03-17T01:17:29.059Z,9.358527
2023-03-17T01:18:29.071Z,9.358464
2023-03-17T01:19:29.022Z,9.358510
2023-03-17T01:20:29.341Z,9.358552
2023-03-17T01:21:29.010Z,9.358543
2023-03-17T01:22:28.990Z,9.358564
2023-03-17T01:23:28.995Z,9.358547
2023-03-17T01:24:29.129Z,9.358607
2023-03-17T01:25:28.956Z,9.358691
2023-03-17T01:26:28.942Z,9.358640
2023-03-17T01:27:28.949Z,9.358593
2023-03-17T01:28:29.010Z,9.358619
2023-03-17T01:29:28.932Z,9.358610
2023-03-17T01:30:29.303Z,9.358650
2023-03-17T01:31:28.947Z,9.358654
2023-03-17T01:32:28.901Z,9.358646
2023-03-17T01:33:28.884Z,9.358604
2023-03-17T01:34:28.878Z,9.358586
2023-03-17T01:35:28.854Z,9.358492
2023-03-17T01:36:28.856Z,9.358551
2023-03-17T01:37:28.844Z,9.358620
2023-03-17T01:38:28.841Z,9.358617
2023-03-17T01:39:28.808Z,9.358606
2023-03-17T01:40:29.190Z,9.358597
2023-03-17T01:41:28.786Z,9.358591
2023-03-17T01:42:28.786Z,9.358559
2023-03-17T01:43:28.802Z,9.358500
2023-03-17T01:44:28.763Z,9.358547
2023-03-17T01:45:28.763Z,9.358575
2023-03-17T01:46:28.735Z,9.358544
2023-03-17T01:47:28.745Z,9.358562
2023-03-17T01:48:28.720Z,9.358571
2023-03-17T01:49:28.700Z,9.358603
2023-03-17T01:50:28.917Z,9.358644
2023-03-17T01:51:28.679Z,9.358592
2023-03-17T01:52:28.665Z,9.358624
2023-03-17T01:53:28.668Z,9.358633
2023-03-17T01:54:28.655Z,9.358590
2023-03-17T01:55:28.639Z,9.358612
2023-03-17T01:56:28.624Z,9.358691
2023-03-17T01:57:28.670Z,9.358590
2023-03-17T01:58:28.613Z,9.358557
2023-03-17T01:59:28.648Z,9.358564
2023-03-17T02:00:28.886Z,9.358567
2023-03-17T02:01:28.592Z,9.358581
2023-03-17T02:02:28.566Z,9.358563
2023-03-17T02:03:28.558Z,9.358553
2023-03-17T02:04:28.604Z,9.358578
2023-03-17T02:05:28.539Z,9.358558
2023-03-17T02:06:28.522Z,9.358572
2023-03-17T02:07:28.513Z,9.358581
2023-03-17T02:08:28.502Z,9.358580
2023-03-17T02:09:28.516Z,9.358641
2023-03-17T02:10:28.728Z,9.358624
2023-03-17T02:11:28.461Z,9.358619
2023-03-17T02:12:28.487Z,9.358600
2023-03-17T02:13:28.460Z,9.358609
2023-03-17T02:14:28.434Z,9.358535
2023-03-17T02:15:28.433Z,9.358569
2023-03-17T02:16:28.479Z,9.358596
2023-03-17T02:17:28.410Z,9.358574
2023-03-17T02:18:28.384Z,9.358538
2023-03-17T02:19:28.408Z,9.358625
2023-03-17T02:20:28.738Z,9.358612
2023-03-17T02:21:28.361Z,9.358578
2023-03-17T02:22:28.356Z,9.358553
2023-03-17T02:23:28.337Z,9.358591
2023-03-17T02:24:28.334Z,9.358603
2023-03-17T02:25:28.336Z,9.358672
2023-03-17T02:26:28.298Z,9.358670
2023-03-17T02:27:28.314Z,9.358685
2023-03-17T02:28:28.309Z,9.358612
2023-03-17T02:29:28.277Z,9.358682
2023-03-17T02:30:28.499Z,9.358619
2023-03-17T02:31:28.264Z,9.358645
2023-03-17T02:32:28.256Z,9.358643
2023-03-17T02:33:28.246Z,9.358617
2023-03-17T02:34:28.245Z,9.358624
2023-03-17T02:35:28.210Z,9.358675
2023-03-17T02:36:28.253Z,9.358737
2023-03-17T02:37:28.208Z,9.358682
2023-03-17T02:38:29.188Z,9.358651
2023-03-17T02:39:28.177Z,9.358551
2023-03-17T02:40:28.483Z,9.358605
2023-03-17T02:41:28.144Z,9.358564
2023-03-17T02:42:28.147Z,9.358557
2023-03-17T02:43:28.153Z,9.358647
2023-03-17T02:44:28.137Z,9.358616
2023-03-17T02:45:28.106Z,9.358634
2023-03-17T02:46:28.178Z,9.358533
2023-03-17T02:47:28.082Z,9.358518
2023-03-17T02:48:28.089Z,9.358543
2023-03-17T02:49:28.095Z,9.358549
2023-03-17T02:50:28.413Z,9.358579
2023-03-17T02:51:28.054Z,9.358619
2023-03-17T02:52:28.056Z,9.358579
2023-03-17T02:53:28.052Z,9.358562
2023-03-17T02:54:28.018Z,9.358558
2023-03-17T02:55:28.028Z,9.358529
2023-03-17T02:56:27.988Z,9.358560
2023-03-17T02:57:28.001Z,9.358551
2023-03-17T02:58:27.978Z,9.358551
2023-03-17T02:59:27.973Z,9.358541
2023-03-17T03:00:28.364Z,9.358576
2023-03-17T03:01:27.991Z,9.358547
2023-03-17T03:02:27.980Z,9.358523
2023-03-17T03:03:27.926Z,9.358477
2023-03-17T03:04:27.934Z,9.358487
2023-03-17T03:05:27.885Z,9.358525
2023-03-17T03:06:27.872Z,9.358536
2023-03-17T03:07:27.876Z,9.358516
2023-03-17T03:08:27.856Z,9.358529
2023-03-17T03:09:27.861Z,9.358568
2023-03-17T03:10:27.963Z,9.358587
2023-03-17T03:11:27.857Z,9.358611
2023-03-17T03:12:27.814Z,9.358580
2023-03-17T03:13:27.803Z,9.358576
2023-03-17T03:14:27.836Z,9.358639
2023-03-17T03:15:27.799Z,9.358575
2023-03-17T03:16:27.771Z,9.358525
2023-03-17T03:17:27.790Z,9.358548
2023-03-17T03:18:27.746Z,9.358604
2023-03-17T03:19:27.760Z,9.358609
2023-03-17T03:20:27.953Z,9.358570
2023-03-17T03:21:27.712Z,9.358594
2023-03-17T03:22:27.705Z,9.358588
2023-03-17T03:23:27.730Z,9.358557
2023-03-17T03:24:27.701Z,9.358542
2023-03-17T03:25:27.666Z,9.358594
2023-03-17T03:26:27.703Z,9.358585
2023-03-17T03:27:27.675Z,9.358610
2023-03-17T03:28:27.656Z,9.358607
2023-03-17T03:29:27.664Z,9.358567
2023-03-17T03:30:27.682Z,9.358577
2023-03-17T03:31:27.735Z,9.358548
2023-03-17T03:32:27.716Z,9.358562
2023-03-17T03:33:27.616Z,9.358560
2023-03-17T03:34:27.600Z,9.358539
2023-03-17T03:35:27.601Z,9.358563
2023-03-17T03:36:27.575Z,9.358536
2023-03-17T03:37:27.595Z,9.358598
2023-03-17T03:38:27.561Z,9.358570
2023-03-17T03:39:27.526Z,9.358590
2023-03-17T03:40:27.679Z,9.358583
2023-03-17T03:41:27.517Z,9.358633
2023-03-17T03:42:27.508Z,9.358641
2023-03-17T03:43:28.505Z,9.358657
2023-03-17T03:44:27.522Z,9.358656
2023-03-17T03:45:27.472Z,9.358598
2023-03-17T03:46:27.492Z,9.358619
2023-03-17T03:47:27.445Z,9.358596
2023-03-17T03:48:27.433Z,9.358560
2023-03-17T03:49:27.478Z,9.358581
2023-03-17T03:50:27.430Z,9.358615
2023-03-17T03:51:27.396Z,9.358664
2023-03-17T03:52:27.419Z,9.358616
2023-03-17T03:53:27.424Z,9.358575
2023-03-17T03:54:27.379Z,9.358551
2023-03-17T03:55:27.362Z,9.358505
2023-03-17T03:56:27.362Z,9.358461
2023-03-17T03:57:27.337Z,9.358523
2023-03-17T03:58:27.369Z,9.358547
2023-03-17T03:59:27.361Z,9.358534
2023-03-17T04:00:27.379Z,9.358534
2023-03-17T04:01:27.313Z,9.358534
2023-03-17T04:02:27.394Z,9.358551
2023-03-17T04:03:27.268Z,9.358459
2023-03-17T04:04:27.277Z,9.358512
2023-03-17T04:05:27.336Z,9.358527
2023-03-17T04:06:27.228Z,9.358517
2023-03-17T04:07:27.224Z,9.358523
2023-03-17T04:08:27.261Z,9.358540
2023-03-17T04:09:27.205Z,9.358512
2023-03-17T04:10:27.206Z,9.358534
2023-03-17T04:11:27.214Z,9.358521
2023-03-17T04:12:27.168Z,9.358548
2023-03-17T04:13:27.159Z,9.358566
2023-03-17T04:14:27.171Z,9.358563
2023-03-17T04:15:27.144Z,9.358589
2023-03-17T04:16:27.214Z,9.358592
2023-03-17T04:17:27.129Z,9.358587
2023-03-17T04:18:27.131Z,9.358493
2023-03-17T04:19:27.089Z,9.358487
2023-03-17T04:20:27.114Z,9.358563
2023-03-17T04:21:27.090Z,9.358591
2023-03-17T04:22:27.060Z,9.358615
2023-03-17T04:23:27.083Z,9.358573
2023-03-17T04:24:27.060Z,9.358522
2023-03-17T04:25:27.035Z,9.358562
2023-03-17T04:26:27.075Z,9.358574
2023-03-17T04:27:27.036Z,9.358584
2023-03-17T04:28:27.020Z,9.358620
2023-03-17T04:29:27.008Z,9.358653
2023-03-17T04:30:26.972Z,9.358674
2023-03-17T04:31:27.029Z,9.358603
2023-03-17T04:32:27.315Z,9.358527
2023-03-17T04:33:27.949Z,9.358594
2023-03-17T04:34:26.943Z,9.358539
2023-03-17T04:35:26.949Z,9.358565
2023-03-17T04:36:26.942Z,9.358565
2023-03-17T04:37:26.912Z,9.358604
2023-03-17T04:38:26.908Z,9.358544
2023-03-17T04:39:59.335Z,9.358577
2023-03-17T04:40:26.892Z,9.358623
2023-03-17T04:41:26.875Z,9.358532
2023-03-17T04:42:26.900Z,9.358541
2023-03-17T04:43:26.832Z,9.358534
2023-03-17T04:44:26.855Z,9.358565
2023-03-17T04:45:26.871Z,9.358559
2023-03-17T04:46:26.800Z,9.358552
2023-03-17T04:47:26.803Z,9.358551
2023-03-17T04:48:26.813Z,9.358593
2023-03-17T04:49:26.790Z,9.358543
2023-03-17T04:50:26.779Z,9.358557
2023-03-17T04:51:26.765Z,9.358585
2023-03-17T04:52:26.761Z,9.358584
2023-03-17T04:53:26.737Z,9.358624
2023-03-17T04:54:26.737Z,9.358576
2023-03-17T04:55:26.715Z,9.358540
2023-03-17T04:56:26.695Z,9.358505
2023-03-17T04:57:26.715Z,9.358604
2023-03-17T04:58:30.695Z,9.358664
2023-03-17T04:59:27.683Z,9.358658
2023-03-17T05:00:26.657Z,9.358561
2023-03-17T05:01:26.680Z,9.358526
2023-03-17T05:02:26.753Z,9.358574
2023-03-17T05:03:27.972Z,9.358606
2023-03-17T05:04:31.564Z,9.358583
2023-03-17T05:05:27.609Z,9.358590
2023-03-17T05:06:26.619Z,9.358575
2023-03-17T05:07:26.581Z,9.358574
2023-03-17T05:08:26.616Z,9.358513
2023-03-17T05:09:26.565Z,9.358529
2023-03-17T05:10:26.550Z,9.358590
2023-03-17T05:11:26.536Z,9.358632
2023-03-17T05:12:26.545Z,9.358624
2023-03-17T05:13:26.532Z,9.358541
2023-03-17T05:14:26.498Z,9.358521
2023-03-17T05:15:26.525Z,9.358578
2023-03-17T05:16:26.493Z,9.358566
2023-03-17T05:17:26.472Z,9.358497
2023-03-17T05:18:26.488Z,9.358538
2023-03-17T05:19:26.480Z,9.358542
2023-03-17T05:20:26.429Z,9.358535
2023-03-17T05:21:26.434Z,9.358438
2023-03-17T05:22:26.437Z,9.358448
2023-03-17T05:23:26.396Z,9.358494
2023-03-17T05:24:26.450Z,9.358521
2023-03-17T05:25:26.399Z,9.358528
2023-03-17T05:26:26.379Z,9.358519
2023-03-17T05:27:26.367Z,9.358472
2023-03-17T05:28:26.371Z,9.358438
2023-03-17T05:29:26.384Z,9.358476
2023-03-17T05:30:26.330Z,9.358460
2023-03-17T05:31:26.349Z,9.358480
2023-03-17T05:32:26.382Z,9.358495
2023-03-17T05:33:26.335Z,9.358437
2023-03-17T05:34:26.274Z,9.358522
2023-03-17T05:35:26.281Z,9.358548
2023-03-17T05:36:26.295Z,9.358546
2023-03-17T05:37:26.266Z,9.358609
2023-03-17T05:38:26.252Z,9.358588
2023-03-17T05:39:26.253Z,9.358582
2023-03-17T05:40:26.234Z,9.358578
2023-03-17T05:41:26.216Z,9.358628
2023-03-17T05:42:26.222Z,9.358633
2023-03-17T05:43:26.204Z,9.358569
2023-03-17T05:44:26.175Z,9.358625
2023-03-17T05:45:26.191Z,9.358620
2023-03-17T05:46:26.226Z,9.358541
2023-03-17T05:47:26.160Z,9.358484
2023-03-17T05:48:26.195Z,9.358466
2023-03-17T05:49:26.142Z,9.358447
2023-03-17T05:50:26.130Z,9.358488
2023-03-17T05:51:26.128Z,9.358496
2023-03-17T05:52:26.172Z,9.358484
2023-03-17T05:53:26.091Z,9.358527
2023-03-17T05:54:26.069Z,9.358556
2023-03-17T05:55:26.097Z,9.358658
2023-03-17T05:56:26.064Z,9.358666
2023-03-17T05:57:26.080Z,9.358606
2023-03-17T05:58:26.064Z,9.358594
2023-03-17T05:59:26.059Z,9.358553
2023-03-17T06:00:26.033Z,9.358488
2023-03-17T06:01:26.023Z,9.358468
2023-03-17T06:02:26.068Z,9.358504
2023-03-17T06:03:26.059Z,9.358535
2023-03-17T06:04:26.003Z,9.358557
2023-03-17T06:05:25.986Z,9.358515
2023-03-17T06:06:25.965Z,9.358460
2023-03-17T06:07:25.954Z,9.358466
2023-03-17T06:08:25.976Z,9.358470
2023-03-17T06:09:25.933Z,9.358459
2023-03-17T06:10:25.925Z,9.358463
2023-03-17T06:11:25.947Z,9.358506
2023-03-17T06:12:25.893Z,9.358523
2023-03-17T06:13:25.913Z,9.358570
2023-03-17T06:14:27.136Z,9.358634
2023-03-17T06:15:26.970Z,9.358614
2023-03-17T06:16:25.854Z,9.358586
2023-03-17T06:17:25.872Z,9.358549
2023-03-17T06:18:25.862Z,9.358531
2023-03-17T06:19:25.838Z,9.358541
2023-03-17T06:20:25.862Z,9.358539
2023-03-17T06:21:25.813Z,9.358534
2023-03-17T06:22:26.792Z,9.358520
2023-03-17T06:23:25.782Z,9.358500
2023-03-17T06:24:25.808Z,9.358544
2023-03-17T06:25:25.767Z,9.358501
2023-03-17T06:26:25.736Z,9.358493
2023-03-17T06:27:25.771Z,9.358484
2023-03-17T06:28:25.748Z,9.358573
2023-03-17T06:29:25.737Z,9.358586
2023-03-17T06:30:25.756Z,9.358523
2023-03-17T06:31:25.757Z,9.358427
2023-03-17T06:32:25.718Z,9.358436
2023-03-17T06:33:25.683Z,9.358463
2023-03-17T06:34:25.700Z,9.358463
2023-03-17T06:35:25.698Z,9.358472
2023-03-17T06:36:25.636Z,9.358479
2023-03-17T06:37:25.634Z,9.358540
2023-03-17T06:38:25.656Z,9.358476
2023-03-17T06:39:25.633Z,9.358468
2023-03-17T06:40:25.589Z,9.358481
2023-03-17T06:41:25.597Z,9.358525
2023-03-17T06:42:25.619Z,9.358521
2023-03-17T06:43:25.556Z,9.358641
2023-03-17T06:44:25.581Z,9.358619
2023-03-17T06:45:25.575Z,9.358498
2023-03-17T06:46:25.586Z,9.358536
2023-03-17T06:47:26.099Z,9.358690
2023-03-17T06:48:26.551Z,9.358693
2023-03-17T06:49:25.536Z,9.358577
2023-03-17T06:50:25.493Z,9.358482
2023-03-17T06:51:25.538Z,9.358494
2023-03-17T06:52:25.481Z,9.358513
2023-03-17T06:53:25.466Z,9.358548
2023-03-17T06:54:25.534Z,9.358551
2023-03-17T06:55:25.471Z,9.358472
2023-03-17T06:56:30.140Z,9.358489
2023-03-17T06:57:27.440Z,9.358582
2023-03-17T06:58:25.435Z,9.358521
2023-03-17T06:59:26.402Z,9.358445
2023-03-17T07:00:25.439Z,9.358455
2023-03-17T07:01:25.497Z,9.358429
2023-03-17T07:02:25.387Z,9.358467
2023-03-17T07:03:25.382Z,9.358480
2023-03-17T07:04:25.443Z,9.358511
2023-03-17T07:05:25.360Z,9.358541
2023-03-17T07:06:25.328Z,9.358503
2023-03-17T07:07:25.351Z,9.358532
2023-03-17T07:08:25.333Z,9.358546
2023-03-17T07:09:25.325Z,9.358531
2023-03-17T07:10:25.284Z,9.358468
2023-03-17T07:11:25.286Z,9.358516
2023-03-17T07:12:25.298Z,9.358512
2023-03-17T07:13:25.292Z,9.358563
2023-03-17T07:14:25.292Z,9.358512
2023-03-17T07:15:25.264Z,9.358582
2023-03-17T07:16:25.286Z,9.358583
2023-03-17T07:17:25.242Z,9.358539
2023-03-17T07:18:25.262Z,9.358427
2023-03-17T07:19:25.238Z,9.358550
2023-03-17T07:20:25.185Z,9.358523
2023-03-17T07:21:25.195Z,9.358579
2023-03-17T07:22:25.242Z,9.358509
2023-03-17T07:23:25.160Z,9.358491
2023-03-17T07:24:25.163Z,9.358464
2023-03-17T07:25:25.160Z,9.358451
2023-03-17T07:26:25.121Z,9.358418
2023-03-17T07:27:25.147Z,9.358431
2023-03-17T07:28:25.124Z,9.358489
2023-03-17T07:29:25.099Z,9.358472
2023-03-17T07:30:25.112Z,9.358452
2023-03-17T07:31:25.119Z,9.358456
2023-03-17T07:32:25.073Z,9.358472
2023-03-17T07:33:25.074Z,9.358464
2023-03-17T07:34:25.086Z,9.358459
2023-03-17T07:35:25.112Z,9.358419
2023-03-17T07:36:25.040Z,9.358348
2023-03-17T07:37:25.027Z,9.358384
2023-03-17T07:38:25.044Z,9.358442
2023-03-17T07:39:25.018Z,9.358451
2023-03-17T07:40:24.967Z,9.358475
2023-03-17T07:41:24.993Z,9.358459
2023-03-17T07:42:24.992Z,9.358447
2023-03-17T07:43:24.967Z,9.358467
2023-03-17T07:44:24.933Z,9.358456
2023-03-17T07:45:24.939Z,9.358460
2023-03-17T07:46:25.015Z,9.358474
2023-03-17T07:47:24.900Z,9.358513
2023-03-17T07:48:24.936Z,9.358542
2023-03-17T07:49:40.104Z,9.358487
2023-03-17T07:50:26.910Z,9.358580
2023-03-17T07:51:24.877Z,9.358584
2023-03-17T07:52:24.888Z,9.358541
2023-03-17T07:53:24.875Z,9.358575
2023-03-17T07:54:24.839Z,9.358569
2023-03-17T07:55:24.873Z,9.358638
2023-03-17T07:56:24.811Z,9.358601
2023-03-17T07:57:24.928Z,9.358534
2023-03-17T07:58:24.813Z,9.358490
2023-03-17T07:59:24.806Z,9.358499
2023-03-17T08:00:24.776Z,9.358548
2023-03-17T08:01:24.776Z,9.358547
2023-03-17T08:02:24.859Z,9.358596
2023-03-17T08:03:24.816Z,9.358614
2023-03-17T08:04:24.771Z,9.358574
2023-03-17T08:05:24.731Z,9.358547
2023-03-17T08:06:24.701Z,9.358509
2023-03-17T08:07:24.723Z,9.358556
2023-03-17T08:08:24.708Z,9.358603
2023-03-17T08:09:24.705Z,9.358607
2023-03-17T08:10:24.686Z,9.358562
2023-03-17T08:11:24.689Z,9.358609
2023-03-17T08:12:24.661Z,9.358588
2023-03-17T08:13:24.647Z,9.358557
2023-03-17T08:14:24.631Z,9.358485
2023-03-17T08:15:24.620Z,9.358575
2023-03-17T08:16:24.666Z,9.358641
2023-03-17T08:17:24.608Z,9.358551
2023-03-17T08:18:24.594Z,9.358523
2023-03-17T08:19:24.627Z,9.358610
2023-03-17T08:20:24.582Z,9.358664
2023-03-17T08:21:24.564Z,9.358582
2023-03-17T08:22:24.558Z,9.358521
2023-03-17T08:23:24.552Z,9.358470
2023-03-17T08:24:24.506Z,9.358489
2023-03-17T08:25:24.531Z,9.358434
2023-03-17T08:26:24.515Z,9.358484
2023-03-17T08:27:24.472Z,9.358574
2023-03-17T08:28:24.516Z,9.358547
2023-03-17T08:29:24.489Z,9.358510
2023-03-17T08:30:24.472Z,9.358637
2023-03-17T08:31:24.511Z,9.358743
2023-03-17T08:32:24.475Z,9.358803
2023-03-17T08:33:24.490Z,9.358601
2023-03-17T08:34:24.426Z,9.358454
2023-03-17T08:35:24.516Z,9.358444
2023-03-17T08:36:24.366Z,9.358475
2023-03-17T08:37:24.381Z,9.358453
2023-03-17T08:38:24.387Z,9.358463
2023-03-17T08:39:25.354Z,9.358476
2023-03-17T08:40:24.336Z,9.358434
2023-03-17T08:41:24.326Z,9.358503
2023-03-17T08:42:24.331Z,9.358610
2023-03-17T08:43:24.327Z,9.358591
2023-03-17T08:44:24.290Z,9.358589
2023-03-17T08:45:24.318Z,9.358569
2023-03-17T08:46:24.303Z,9.358569
2023-03-17T08:47:24.256Z,9.358575
2023-03-17T08:48:24.235Z,9.358614
2023-03-17T08:49:24.270Z,9.358582
2023-03-17T08:50:25.247Z,9.358582
2023-03-17T08:51:24.617Z,9.358559
2023-03-17T08:52:25.218Z,9.358549
2023-03-17T08:53:24.191Z,9.358666
2023-03-17T08:54:24.177Z,9.358656
2023-03-17T08:55:24.180Z,9.358552
2023-03-17T08:56:24.167Z,9.358543
2023-03-17T08:57:24.147Z,9.358527
2023-03-17T08:58:24.130Z,9.358551
2023-03-17T08:59:24.155Z,9.358640
2023-03-17T09:00:24.096Z,9.358561
2023-03-17T09:01:24.100Z,9.358580
2023-03-17T09:02:24.163Z,9.358546
2023-03-17T09:03:24.074Z,9.358465
2023-03-17T09:04:24.080Z,9.358452
2023-03-17T09:05:24.054Z,9.358474
2023-03-17T09:06:24.064Z,9.358478
2023-03-17T09:07:24.025Z,9.358508
2023-03-17T09:08:24.032Z,9.358500
2023-03-17T09:09:24.010Z,9.358491
2023-03-17T09:10:23.992Z,9.358574
2023-03-17T09:11:23.995Z,9.358564
2023-03-17T09:12:23.989Z,9.358566
2023-03-17T09:13:23.959Z,9.358565
2023-03-17T09:14:23.948Z,9.358502
2023-03-17T09:15:23.957Z,9.358481
2023-03-17T09:16:24.245Z,9.358463
2023-03-17T09:17:23.921Z,9.358530
2023-03-17T09:18:23.898Z,9.358512
2023-03-17T09:19:23.897Z,9.358553
2023-03-17T09:20:23.901Z,9.358501
2023-03-17T09:21:23.881Z,9.358475
2023-03-17T09:22:23.853Z,9.358456
2023-03-17T09:23:23.866Z,9.358433
2023-03-17T09:24:23.823Z,9.358472
2023-03-17T09:25:23.821Z,9.358474
2023-03-17T09:26:23.838Z,9.358433
2023-03-17T09:27:23.792Z,9.358491
2023-03-17T09:28:23.775Z,9.358479
2023-03-17T09:29:23.794Z,9.358467
2023-03-17T09:30:23.787Z,9.358499
2023-03-17T09:31:23.749Z,9.358545
2023-03-17T09:32:23.755Z,9.358519
2023-03-17T09:33:23.746Z,9.358442
2023-03-17T09:34:23.705Z,9.358418
2023-03-17T09:35:23.728Z,9.358468
2023-03-17T09:36:23.745Z,9.358419
2023-03-17T09:37:23.694Z,9.358473
2023-03-17T09:38:23.642Z,9.358505
2023-03-17T09:39:23.687Z,9.358483
2023-03-17T09:40:23.642Z,9.358559
2023-03-17T09:41:23.624Z,9.358607
2023-03-17T09:42:23.650Z,9.358580
2023-03-17T09:43:23.612Z,9.358609
2023-03-17T09:44:23.612Z,9.358523
2023-03-17T09:45:23.585Z,9.358579
2023-03-17T09:46:23.656Z,9.358581
2023-03-17T09:47:23.592Z,9.358535
2023-03-17T09:48:23.530Z,9.358594
2023-03-17T09:49:23.534Z,9.358571
2023-03-17T09:50:23.581Z,9.358588
2023-03-17T09:51:23.532Z,9.358541
2023-03-17T09:52:23.502Z,9.358523
2023-03-17T09:53:23.495Z,9.358589
2023-03-17T09:54:23.505Z,9.358532
2023-03-17T09:55:23.466Z,9.358526
2023-03-17T09:56:23.505Z,9.358477
2023-03-17T09:57:23.446Z,9.358479
2023-03-17T09:58:23.441Z,9.358444
2023-03-17T09:59:23.428Z,9.358508
2023-03-17T10:00:23.436Z,9.358614
2023-03-17T10:01:23.479Z,9.358610
2023-03-17T10:02:23.390Z,9.358615
2023-03-17T10:03:23.400Z,9.358593
2023-03-17T10:04:23.368Z,9.358532
2023-03-17T10:05:23.427Z,9.358437
2023-03-17T10:06:23.381Z,9.358459
2023-03-17T10:07:23.352Z,9.358433
2023-03-17T10:08:31.379Z,9.358443
2023-03-17T10:09:26.939Z,9.358505
2023-03-17T10:10:24.345Z,9.358519
2023-03-17T10:11:23.311Z,9.358514
2023-03-17T10:12:23.325Z,9.358496
2023-03-17T10:13:23.276Z,9.358491
2023-03-17T10:14:23.261Z,9.358504
2023-03-17T10:15:23.249Z,9.358508
2023-03-17T10:16:23.384Z,9.358538
2023-03-17T10:17:23.260Z,9.358438
2023-03-17T10:18:23.202Z,9.358427
2023-03-17T10:19:23.213Z,9.358420
2023-03-17T10:20:23.195Z,9.358474
2023-03-17T10:21:23.192Z,9.358474
2023-03-17T10:22:23.203Z,9.358473
2023-03-17T10:23:23.165Z,9.358463
2023-03-17T10:24:23.152Z,9.358438
2023-03-17T10:25:23.129Z,9.358349
2023-03-17T10:26:24.163Z,9.358434
2023-03-17T10:27:23.098Z,9.358515
2023-03-17T10:28:23.148Z,9.358477
2023-03-17T10:29:23.107Z,9.358488
2023-03-17T10:30:23.087Z,9.358498
2023-03-17T10:31:23.138Z,9.358506
2023-03-17T10:32:23.081Z,9.358471
2023-03-17T10:33:23.110Z,9.358446
2023-03-17T10:34:23.053Z,9.358448
2023-03-17T10:35:23.114Z,9.358459
2023-03-17T10:36:23.017Z,9.358509
2023-03-17T10:37:23.027Z,9.358455
2023-03-17T10:38:23.035Z,9.358459
2023-03-17T10:39:22.999Z,9.358482
2023-03-17T10:40:22.971Z,9.358438
2023-03-17T10:41:23.273Z,9.358528
2023-03-17T10:42:22.969Z,9.358492
2023-03-17T10:43:23.112Z,9.358438
2023-03-17T10:44:22.948Z,9.358430
2023-03-17T10:45:22.934Z,9.358501
2023-03-17T10:46:22.983Z,9.358479
2023-03-17T10:47:22.890Z,9.358466
2023-03-17T10:48:22.897Z,9.358433
2023-03-17T10:49:22.897Z,9.358515
2023-03-17T10:50:22.868Z,9.358516
2023-03-17T10:51:22.858Z,9.358527
2023-03-17T10:52:22.859Z,9.358590
2023-03-17T10:53:22.913Z,9.358562
2023-03-17T10:54:22.816Z,9.358509
2023-03-17T10:55:22.838Z,9.358541
2023-03-17T10:56:22.809Z,9.358534
2023-03-17T10:57:22.795Z,9.358548
2023-03-17T10:58:22.790Z,9.358553
2023-03-17T10:59:22.794Z,9.358508
2023-03-17T11:00:22.738Z,9.358505
2023-03-17T11:01:22.861Z,9.358609
2023-03-17T11:02:22.766Z,9.358594
2023-03-17T11:03:22.829Z,9.358516
2023-03-17T11:04:22.819Z,9.358528
2023-03-17T11:05:22.694Z,9.358572
2023-03-17T11:06:23.712Z,9.358542
2023-03-17T11:07:22.674Z,9.358500
2023-03-17T11:08:22.701Z,9.358467
2023-03-17T11:09:22.673Z,9.358491
2023-03-17T11:10:22.648Z,9.358535
2023-03-17T11:11:22.658Z,9.358551
2023-03-17T11:12:22.646Z,9.358546
2023-03-17T11:13:22.647Z,9.358583
2023-03-17T11:14:22.603Z,9.358613
2023-03-17T11:15:22.639Z,9.358593
2023-03-17T11:16:22.646Z,9.358585
2023-03-17T11:17:22.593Z,9.358557
2023-03-17T11:18:22.583Z,9.358548
2023-03-17T11:19:22.567Z,9.358549
2023-03-17T11:20:22.546Z,9.358545
2023-03-17T11:21:22.532Z,9.358570
2023-03-17T11:22:22.536Z,9.358585
2023-03-17T11:23:22.652Z,9.358604
2023-03-17T11:24:22.490Z,9.358648
2023-03-17T11:25:22.486Z,9.358607
2023-03-17T11:26:22.497Z,9.358516
2023-03-17T11:27:22.473Z,9.358521
2023-03-17T11:28:22.463Z,9.358540
2023-03-17T11:29:22.482Z,9.358558
2023-03-17T11:30:22.473Z,9.358571
2023-03-17T11:31:22.499Z,9.358573
2023-03-17T11:32:22.448Z,9.358574
2023-03-17T11:33:22.516Z,9.358540
2023-03-17T11:34:22.402Z,9.358534
2023-03-17T11:35:22.397Z,9.358555
2023-03-17T11:36:22.411Z,9.358615
2023-03-17T11:37:22.382Z,9.358606
2023-03-17T11:38:22.382Z,9.358628
2023-03-17T11:39:22.365Z,9.358631
2023-03-17T11:40:22.329Z,9.358570
2023-03-17T11:41:22.337Z,9.358539
2023-03-17T11:42:22.361Z,9.358531
2023-03-17T11:43:22.366Z,9.358562
2023-03-17T11:44:22.283Z,9.358571